createdAt,value
2022-11-06T00:03:34.733Z,5.10
2022-11-06T00:08:30.355Z,4.93
2022-11-06T00:13:24.109Z,7.53
2022-11-06T00:18:18.981Z,6.97
2022-11-06T00:23:12.281Z,6.18
2022-11-06T00:28:06.911Z,6.23
2022-11-06T00:33:00.895Z,10.63
2022-11-06T00:47:41.306Z,6.00
2022-11-06T00:52:35.510Z,4.53
2022-11-06T01:02:21.677Z,6.90
2022-11-06T01:07:15.236Z,4.65
2022-11-06T01:12:13.967Z,3.95
2022-11-06T01:17:07.931Z,6.53
2022-11-06T01:22:01.074Z,5.00
2022-11-06T01:27:20.346Z,5.00
2022-11-06T01:32:07.831Z,3.92
2022-11-06T01:37:01.280Z,4.43
2022-11-06T01:41:55.036Z,3.67
2022-11-06T01:51:47.850Z,3.93
2022-11-06T01:56:41.963Z,4.53
2022-11-06T02:01:35.744Z,5.22
2022-11-06T02:06:29.958Z,3.63
2022-11-06T02:11:23.587Z,4.47
2022-11-06T02:16:29.037Z,4.05
2022-11-06T02:21:27.583Z,6.05
2022-11-06T02:26:57.862Z,4.70
2022-11-06T02:31:53.926Z,10.88
2022-11-06T02:36:52.383Z,6.90
2022-11-06T02:41:47.281Z,7.20
2022-11-06T02:47:03.882Z,4.78
2022-11-06T02:52:01.278Z,5.95
2022-11-06T02:56:57.521Z,4.78
2022-11-06T03:01:58.502Z,4.82
2022-11-06T03:07:15.487Z,5.40
2022-11-06T03:12:08.323Z,5.03
2022-11-06T03:17:28.735Z,6.15
2022-11-06T03:22:27.688Z,4.43
2022-11-06T03:27:26.370Z,4.05
2022-11-06T03:32:27.828Z,5.53
2022-11-06T03:37:28.323Z,6.03
2022-11-06T03:42:38.020Z,5.10
2022-11-06T03:47:35.221Z,5.47
2022-11-06T03:52:36.479Z,3.58
2022-11-06T03:57:53.824Z,4.25
2022-11-06T04:02:53.034Z,5.18
2022-11-06T04:08:08.341Z,3.13
2022-11-06T04:13:20.258Z,3.92
2022-11-06T04:18:20.266Z,4.28
2022-11-06T04:23:25.608Z,5.03
2022-11-06T04:28:48.921Z,5.55
2022-11-06T04:33:56.191Z,5.32
2022-11-06T04:39:17.734Z,4.10
2022-11-06T04:44:16.099Z,4.30
2022-11-06T04:49:11.106Z,8.40
2022-11-06T04:54:08.108Z,5.82
2022-11-06T04:59:01.198Z,5.05
2022-11-06T05:03:55.325Z,4.90
2022-11-06T05:13:42.467Z,7.45
2022-11-06T05:18:36.306Z,6.57
2022-11-06T05:28:23.711Z,6.75
2022-11-06T05:33:17.582Z,8.45
2022-11-06T05:38:11.677Z,8.95
2022-11-06T05:43:05.604Z,8.07
2022-11-06T05:47:59.434Z,6.40
2022-11-06T05:52:53.410Z,6.85
2022-11-06T05:57:47.453Z,9.10
2022-11-06T06:02:40.596Z,13.45
2022-11-06T06:07:35.613Z,15.90
2022-11-06T06:12:29.634Z,13.90
2022-11-06T06:17:23.445Z,11.90
2022-11-06T06:22:16.946Z,5.88
2022-11-06T06:27:11.363Z,4.15
2022-11-06T06:32:04.329Z,4.85
2022-11-06T06:36:58.394Z,4.30
2022-11-06T06:41:52.940Z,6.20
2022-11-06T06:46:47.151Z,2.58
2022-11-06T06:56:34.424Z,3.42
2022-11-06T07:01:28.652Z,4.82
2022-11-06T07:06:21.837Z,6.10
2022-11-06T07:11:16.177Z,5.75
2022-11-06T07:16:12.704Z,4.28
2022-11-06T07:21:07.628Z,4.05
2022-11-06T07:26:05.479Z,3.90
2022-11-06T07:31:03.628Z,5.00
2022-11-06T07:35:57.809Z,4.38
2022-11-06T07:40:52.096Z,4.10
2022-11-06T07:50:40.033Z,5.13
2022-11-06T07:55:36.693Z,6.15
2022-11-06T08:00:35.168Z,5.20
2022-11-06T08:05:30.633Z,9.55
2022-11-06T08:10:24.973Z,5.88
2022-11-06T08:15:20.271Z,6.03
2022-11-06T08:20:13.442Z,6.03
2022-11-06T08:25:10.891Z,7.60
2022-11-06T08:30:05.315Z,4.82
2022-11-06T08:34:58.497Z,4.25
2022-11-06T08:39:52.928Z,8.02
2022-11-06T08:44:47.361Z,7.18
2022-11-06T08:49:41.536Z,4.22
2022-11-06T08:54:35.276Z,4.97
2022-11-06T08:59:28.699Z,5.32
2022-11-06T09:04:21.876Z,4.20
2022-11-06T09:09:15.971Z,5.15
2022-11-06T09:14:09.859Z,5.43
2022-11-06T09:19:04.639Z,5.03
2022-11-06T09:23:59.476Z,6.55
2022-11-06T09:28:53.431Z,7.40
2022-11-06T09:33:46.306Z,6.32
2022-11-06T09:44:04.572Z,5.80
2022-11-06T09:49:09.256Z,8.20
2022-11-06T09:54:06.638Z,6.93
2022-11-06T09:59:01.950Z,5.85
2022-11-06T10:04:01.024Z,6.85
2022-11-06T10:08:59.518Z,6.07
2022-11-06T10:14:17.927Z,8.40
2022-11-06T10:19:17.519Z,6.40
2022-11-06T10:24:23.430Z,6.10
2022-11-06T10:29:34.953Z,6.18
2022-11-06T10:34:37.283Z,5.38
2022-11-06T10:39:33.519Z,6.05
2022-11-06T10:44:42.767Z,5.75
2022-11-06T10:49:52.577Z,7.47
2022-11-06T10:55:47.107Z,6.28
2022-11-06T11:00:42.002Z,7.57
2022-11-06T11:05:40.914Z,5.45
2022-11-06T11:10:35.591Z,7.28
2022-11-06T11:15:32.314Z,7.38
2022-11-06T11:20:52.572Z,6.05
2022-11-06T11:25:49.990Z,5.95
2022-11-06T11:30:52.818Z,5.50
2022-11-06T11:35:49.466Z,7.03
2022-11-06T11:40:43.679Z,66.22
2022-11-06T11:45:38.310Z,7.22
2022-11-06T11:50:35.651Z,6.97
2022-11-06T11:55:30.424Z,5.65
2022-11-06T12:00:30.607Z,8.02
2022-11-06T12:05:27.842Z,5.28
2022-11-06T12:10:33.022Z,5.07
2022-11-06T12:15:45.470Z,6.50
2022-11-06T12:21:03.621Z,5.40
2022-11-06T12:26:03.492Z,5.70
2022-11-06T12:31:06.525Z,6.72
2022-11-06T12:36:16.520Z,6.43
2022-11-06T12:41:23.936Z,4.63
2022-11-06T12:46:19.664Z,7.55
2022-11-06T12:51:33.794Z,8.25
2022-11-06T12:56:52.234Z,6.03
2022-11-06T13:02:18.152Z,3.88
2022-11-06T13:07:40.277Z,5.75
2022-11-06T13:12:54.868Z,6.63
2022-11-06T13:18:06.888Z,6.25
2022-11-06T13:23:01.224Z,5.60
2022-11-06T13:28:01.155Z,5.53
2022-11-06T13:33:06.271Z,4.93
2022-11-06T13:38:00.515Z,6.13
2022-11-06T13:43:02.109Z,4.70
2022-11-06T13:48:07.779Z,5.80
2022-11-06T13:53:25.248Z,6.25
2022-11-06T13:58:30.742Z,5.55
2022-11-06T14:03:35.774Z,4.97
2022-11-06T14:08:52.910Z,5.07
2022-11-06T14:14:07.143Z,4.80
2022-11-06T14:19:21.996Z,4.88
2022-11-06T14:24:33.664Z,6.07
2022-11-06T14:29:27.009Z,5.97
2022-11-06T14:34:50.883Z,4.70
2022-11-06T14:39:56.204Z,5.93
2022-11-06T14:45:19.172Z,10.40
2022-11-06T14:50:50.010Z,5.18
2022-11-06T14:55:56.769Z,5.32
2022-11-06T15:01:11.113Z,6.45
2022-11-06T15:06:29.672Z,6.45
2022-11-06T15:11:51.258Z,6.07
2022-11-06T15:16:45.101Z,5.32
2022-11-06T15:21:45.510Z,5.70
2022-11-06T15:26:41.106Z,7.20
2022-11-06T15:31:35.244Z,6.65
2022-11-06T15:36:33.609Z,7.38
2022-11-06T15:41:27.740Z,7.40
2022-11-06T15:46:21.887Z,7.55
2022-11-06T15:51:22.651Z,7.97
2022-11-06T15:56:18.721Z,8.70
2022-11-06T16:01:13.242Z,6.70
2022-11-06T16:06:07.842Z,6.97
2022-11-06T16:11:12.295Z,8.15
2022-11-06T16:16:07.302Z,6.75
2022-11-06T16:21:10.397Z,8.20
2022-11-06T16:26:06.728Z,6.35
2022-11-06T16:31:21.235Z,8.23
2022-11-06T16:36:16.091Z,10.25
2022-11-06T16:41:09.411Z,14.68
2022-11-06T16:46:24.391Z,13.52
2022-11-06T16:51:49.903Z,11.88
2022-11-06T16:56:44.574Z,12.88
2022-11-06T17:01:42.734Z,11.15
2022-11-06T17:06:37.090Z,9.38
2022-11-06T17:11:30.550Z,12.93
2022-11-06T17:21:18.174Z,15.18
2022-11-06T17:26:18.466Z,16.20
2022-11-06T17:31:15.461Z,16.60
2022-11-06T17:36:15.879Z,17.00
2022-11-06T17:41:09.347Z,15.73
2022-11-06T17:46:03.049Z,15.68
2022-11-06T17:51:15.644Z,17.23
2022-11-06T17:56:10.802Z,17.50
2022-11-06T18:01:08.357Z,14.68
2022-11-06T18:06:02.078Z,15.32
2022-11-06T18:10:56.232Z,17.42
2022-11-06T18:15:49.422Z,17.65
2022-11-06T18:20:47.074Z,18.13
2022-11-06T18:25:40.911Z,15.20
2022-11-06T18:30:35.167Z,15.10
2022-11-06T18:35:29.066Z,14.70
2022-11-06T18:40:22.069Z,15.68
2022-11-06T18:45:16.116Z,17.00
2022-11-06T18:50:10.690Z,18.33
2022-11-06T18:55:05.157Z,16.48
2022-11-06T18:59:58.634Z,16.50
2022-11-06T19:04:55.870Z,14.67
2022-11-06T19:09:49.992Z,16.45
2022-11-06T19:14:43.829Z,13.77
2022-11-06T19:19:37.044Z,17.95
2022-11-06T19:24:30.973Z,19.33
2022-11-06T19:34:18.080Z,22.83
2022-11-06T19:39:11.654Z,17.70
2022-11-06T19:44:10.288Z,20.60
2022-11-06T19:49:05.529Z,24.15
2022-11-06T19:53:59.315Z,22.23
2022-11-06T19:58:54.253Z,18.08
2022-11-06T20:03:48.647Z,17.38
2022-11-06T20:08:43.768Z,16.85
2022-11-06T20:13:38.240Z,18.23
2022-11-06T20:18:31.295Z,20.30
2022-11-06T20:23:24.483Z,24.13
2022-11-06T20:28:17.713Z,17.90
2022-11-06T20:33:11.697Z,23.92
2022-11-06T20:38:06.663Z,21.65
2022-11-06T20:43:01.344Z,24.10
2022-11-06T20:47:57.144Z,21.40
2022-11-06T20:52:51.724Z,21.85
2022-11-06T20:57:46.218Z,21.05
2022-11-06T21:02:39.661Z,23.67
2022-11-06T21:07:35.551Z,22.92
2022-11-06T21:12:28.545Z,25.17
2022-11-06T21:17:22.186Z,22.60
2022-11-06T21:22:16.391Z,24.65
2022-11-06T21:27:11.556Z,15.07
2022-11-06T21:32:05.787Z,16.20
2022-11-06T21:37:02.556Z,17.83
2022-11-06T21:41:56.978Z,16.45
2022-11-06T21:46:51.264Z,18.10
2022-11-06T21:51:45.543Z,16.65
2022-11-06T21:56:40.994Z,14.70
2022-11-06T22:01:34.792Z,14.10
2022-11-06T22:06:28.459Z,16.38
2022-11-06T22:11:23.551Z,16.98
2022-11-06T22:16:20.190Z,16.98
2022-11-06T22:21:14.855Z,18.73
2022-11-06T22:26:10.626Z,16.60
2022-11-06T22:31:05.347Z,15.80
2022-11-06T22:36:06.320Z,16.25
2022-11-06T22:41:00.722Z,13.93
2022-11-06T22:45:59.345Z,13.30
2022-11-06T22:50:52.496Z,12.93
2022-11-06T22:55:46.263Z,14.82
2022-11-06T23:00:40.030Z,13.20
2022-11-06T23:05:34.435Z,14.30
2022-11-06T23:10:30.479Z,11.98
2022-11-06T23:15:24.867Z,14.25
2022-11-06T23:20:18.587Z,15.07
2022-11-06T23:30:06.075Z,15.45
2022-11-06T23:34:59.496Z,15.18
2022-11-06T23:39:52.808Z,15.48
2022-11-06T23:49:58.278Z,11.85
2022-11-06T23:54:51.740Z,14.95
2022-11-06T23:59:45.398Z,11.57
